Wall Blake, Anguilla

12:48 AM AST on September 03, 2015 (GMT -0400)
Concordia | | Change Station
CLOSE
Current Station
Personal Weather Station
Location: Saint-Martin,
Elevation: 85 ft
Nearby Weather Stations

Elev 85 ft 18.07 °N, 63.07 °W | Updated 1 minute ago

Partly Cloudy
Partly Cloudy
81.0 °F
Feels Like 88 °F
N
0.0
Wind Variable Wind from East
Gusts 4.1 mph

Today
High -- | Low -- °F
--% Chance of Precip.
Yesterday
High -- | Low -- °F
Precip. -- in
5:58 AM 6:24 PM
Waning Gibbous, 74% visible
Pressure 29.98 in
Visibility 6.2 miles
Clouds Few 1900 ft
Heat Index 88 °F
Dew Point 77 °F
Humidity 88%
Rainfall 0.00 in
Snow Depth Not available.
UV 0.0 out of 12
Pollen Not available.
Air Quality Not available.
Flu Activity Not available.
METAR TNCM 030400Z 10004KT 060V120 9999 FEW019 28/24 Q1015 A2998
Pressure 29.98 in
Visibility 6.2 miles
Clouds Few 1900 ft
Heat Index 88 °F
Dew Point 77 °F
Humidity 88%
Rainfall 0.00 in
Snow Depth Not available.
UV 0.0 out of 12
Pollen Not available.
Air Quality Not available.
Flu Activity Not available.
METAR TNCM 030400Z 10004KT 060V120 9999 FEW019 28/24 Q1015 A2998

10-Day Weather Forecast

×

Almanac

Astronomy

Sep. 03, 2015 Rise Set
Actual Time
Civil Twilight
Nautical Twilight
Astronomical Twilight
Moon
Length of Visible Light
Length of Day
Tomorrow will be .
, % of the Moon is Illuminated

Today's Extremes

Country Highs Country Lows

Community

WunderPhotos

Upload Photos

1,851,913 photos uploaded!

WunderBlogs® & News

Nearby

Air Quality

  Air Quality AQ Index Pollutant
Not available.

Snow Depth

Station Depth Elevation

Earthquake Activity

City Distance Mag. Time & Date
Minimum magnitude displayed is 2.5.

Coastal Water Temperatures

Place Temperature

Stations

Nearby Weather Stations

Station Location Temp. Windchill Dew Point Humidity Wind Precip. Elev Updated Type